Time;durP1;ratioP1;P1;durP2;ratioP2;P2;SDS_P1;SDS_P2;PMS_P1;PMS_P2;Temp;Humidity;BMP_temperature;BMP_pressure;BME280_temperature;BME280_humidity;BME280_pressure;Samples;Min_cycle;Max_cycle;Signal;HPM_P1;HPM_P2
2022/05/16 00:01:08;;;;;;;24.13;13.50;;;13.50;99.90;;;;;;5189161;28;20401;-68
2022/05/16 00:03:38;;;;;;;44.67;15.82;;;13.50;99.90;;;;;;5187717;28;20018;-69
2022/05/16 00:06:09;;;;;;;22.40;14.48;;;13.50;99.90;;;;;;5188856;28;20014;-69
2022/05/16 00:08:40;;;;;;;32.95;18.35;;;13.40;99.90;;;;;;5188828;28;20034;-68
2022/05/16 00:11:11;;;;;;;28.83;16.58;;;13.50;99.90;;;;;;5188918;28;20427;-68
2022/05/16 00:13:42;;;;;;;23.45;14.65;;;13.60;99.90;;;;;;5188738;28;20115;-68
2022/05/16 00:16:13;;;;;;;25.20;15.75;;;13.70;99.90;;;;;;5188629;28;20026;-68
2022/05/16 00:18:43;;;;;;;23.95;15.18;;;13.70;99.90;;;;;;5188513;28;20034;-73
2022/05/16 00:21:14;;;;;;;28.75;16.85;;;13.70;99.90;;;;;;5188635;28;20099;-68
2022/05/16 00:23:45;;;;;;;26.38;16.83;;;13.60;99.90;;;;;;5188580;28;20034;-68
2022/05/16 00:26:16;;;;;;;29.50;16.50;;;13.60;99.90;;;;;;5188393;28;20018;-68
2022/05/16 00:28:47;;;;;;;25.83;14.95;;;13.70;99.90;;;;;;5188472;28;20450;-68
2022/05/16 00:31:18;;;;;;;25.85;15.55;;;13.60;99.90;;;;;;5188251;28;20051;-69
2022/05/16 00:33:48;;;;;;;24.35;14.70;;;13.70;99.90;;;;;;5188345;28;20030;-68
2022/05/16 00:36:19;;;;;;;21.38;15.32;;;13.70;99.90;;;;;;5188373;28;20484;-68
2022/05/16 00:38:54;;;;;;;17.55;12.63;;;13.70;99.90;;;;;;5188353;28;20034;-68
2022/05/16 00:41:25;;;;;;;16.13;11.15;;;13.60;99.90;;;;;;5188315;28;20022;-68
2022/05/16 00:43:58;;;;;;;18.42;12.20;;;13.50;99.90;;;;;;5188250;28;20030;-69
2022/05/16 00:46:32;;;;;;;14.52;11.40;;;13.60;99.90;;;;;;5186828;28;20386;-68
2022/05/16 00:49:07;;;;;;;13.88;11.18;;;13.80;99.90;;;;;;5188088;28;20470;-68
2022/05/16 00:51:46;;;;;;;14.88;10.68;;;13.50;99.90;;;;;;5187748;28;20123;-68
2022/05/16 00:54:26;;;;;;;14.52;11.43;;;13.60;99.90;;;;;;5186490;28;20524;-69
2022/05/16 00:57:24;;;;;;;17.08;12.65;;;13.40;99.90;;;;;;5188067;28;20413;-69
2022/05/16 00:59:58;;;;;;;14.45;11.88;;;13.40;99.90;;;;;;5187601;28;20402;-72
2022/05/16 01:05:21;;;;;;;17.80;12.90;;;13.50;99.90;;;;;;5187983;28;20045;-73
2022/05/16 01:07:56;;;;;;;17.55;11.90;;;13.50;99.90;;;;;;5187759;28;20026;-68
2022/05/16 01:10:27;;;;;;;13.77;10.55;;;13.50;99.90;;;;;;5187780;28;20033;-73
2022/05/16 01:12:58;;;;;;;17.83;12.68;;;13.60;99.90;;;;;;5187524;28;20042;-69
2022/05/16 01:15:31;;;;;;;18.35;12.38;;;13.60;99.90;;;;;;5187535;28;20079;-72
2022/05/16 01:18:03;;;;;;;15.98;10.77;;;13.50;99.90;;;;;;5187445;28;20026;-68
2022/05/16 01:21:11;;;;;;;12.68;10.32;;;13.60;99.90;;;;;;5187248;28;20351;-68
2022/05/16 01:23:47;;;;;;;15.57;10.30;;;13.50;99.90;;;;;;5187609;28;20117;-72
2022/05/16 01:26:24;;;;;;;14.20;9.98;;;13.40;99.90;;;;;;5187818;28;20022;-68
2022/05/16 01:28:56;;;;;;;13.73;10.23;;;13.40;99.90;;;;;;5187733;28;20359;-73
2022/05/16 01:31:27;;;;;;;19.75;10.88;;;13.40;99.90;;;;;;5186220;28;20025;-73
2022/05/16 01:33:58;;;;;;;16.25;11.50;;;13.30;99.90;;;;;;5187553;28;20057;-73
2022/05/16 01:36:29;;;;;;;19.25;10.70;;;13.40;99.90;;;;;;5187498;28;20029;-73
2022/05/16 01:39:00;;;;;;;19.75;11.32;;;13.40;99.90;;;;;;5187505;28;20022;-68
2022/05/16 01:41:31;;;;;;;19.60;11.10;;;13.60;99.90;;;;;;5186085;28;20026;-69
2022/05/16 01:44:02;;;;;;;22.50;10.50;;;13.60;99.90;;;;;;5187260;28;20076;-69
2022/05/16 01:46:36;;;;;;;22.83;11.25;;;13.50;99.90;;;;;;5187306;28;20026;-68
2022/05/16 01:49:09;;;;;;;19.98;11.48;;;13.70;99.90;;;;;;5187194;28;20402;-68
2022/05/16 01:51:41;;;;;;;22.25;12.57;;;13.60;99.90;;;;;;5186875;28;20050;-68
2022/05/16 01:54:12;;;;;;;24.85;13.18;;;13.40;99.90;;;;;;5187229;28;20366;-68
2022/05/16 01:56:44;;;;;;;26.23;13.18;;;13.60;99.90;;;;;;5187129;28;20014;-68
2022/05/16 01:59:14;;;;;;;21.42;13.57;;;13.30;99.90;;;;;;5187151;28;20092;-69
2022/05/16 02:01:45;;;;;;;20.10;12.60;;;13.30;99.90;;;;;;5187176;28;20021;-68
2022/05/16 02:04:16;;;;;;;18.65;14.07;;;13.30;99.90;;;;;;5186731;28;20484;-73
2022/05/16 02:06:47;;;;;;;19.35;13.05;;;13.50;99.90;;;;;;5186874;28;20477;-72
2022/05/16 02:09:17;;;;;;;19.00;13.40;;;13.40;99.90;;;;;;5185588;28;20022;-72
2022/05/16 02:11:48;;;;;;;19.83;13.70;;;13.40;99.90;;;;;;5186844;28;20025;-68
2022/05/16 02:14:21;;;;;;;20.85;11.60;;;13.30;99.90;;;;;;5186779;28;20377;-69
2022/05/16 02:16:52;;;;;;;38.22;18.27;;;13.30;99.90;;;;;;5186707;28;20021;-72
2022/05/16 02:19:22;;;;;;;39.63;17.77;;;13.30;99.90;;;;;;5186578;28;20080;-70
2022/05/16 02:24:43;;;;;;;44.75;17.13;;;13.40;99.90;;;;;;5186627;28;20100;-69
2022/05/16 02:27:18;;;;;;;41.75;18.40;;;13.40;99.90;;;;;;5184794;28;20339;-68
2022/05/16 02:29:49;;;;;;;35.47;16.02;;;13.40;99.90;;;;;;5186597;28;20026;-68
2022/05/16 02:32:19;;;;;;;52.63;17.63;;;13.30;99.90;;;;;;5186525;28;20081;-68
2022/05/16 02:34:50;;;;;;;35.15;16.40;;;13.30;99.90;;;;;;5186374;28;20041;-72
2022/05/16 02:37:21;;;;;;;48.53;18.13;;;13.30;99.90;;;;;;5186317;28;20385;-73
2022/05/16 02:39:52;;;;;;;52.90;18.83;;;13.20;99.90;;;;;;5186397;28;20064;-70
2022/05/16 02:42:23;;;;;;;49.75;18.88;;;13.50;99.90;;;;;;5185154;28;20076;-72
2022/05/16 02:44:54;;;;;;;54.88;19.63;;;13.40;99.90;;;;;;5184960;28;20080;-73
2022/05/16 02:47:25;;;;;;;46.20;19.55;;;13.40;99.90;;;;;;5186392;28;20470;-73
2022/05/16 02:49:56;;;;;;;51.22;19.65;;;13.50;99.90;;;;;;5186260;28;20037;-69
2022/05/16 02:52:27;;;;;;;58.83;18.02;;;13.50;99.90;;;;;;5186020;28;20128;-72
2022/05/16 02:55:00;;;;;;;56.05;19.13;;;13.50;99.90;;;;;;5186142;28;20041;-74
2022/05/16 02:57:32;;;;;;;47.80;18.70;;;13.40;99.90;;;;;;5186377;28;20014;-68
2022/05/16 03:00:05;;;;;;;50.08;19.65;;;13.40;99.90;;;;;;5186246;28;20026;-68
2022/05/16 03:02:37;;;;;;;48.58;18.70;;;13.40;99.90;;;;;;5186214;28;20541;-69
2022/05/16 03:05:08;;;;;;;62.13;18.30;;;13.40;99.90;;;;;;5186258;28;20065;-68
2022/05/16 03:07:39;;;;;;;53.28;17.50;;;13.50;99.90;;;;;;5186231;28;20455;-68
2022/05/16 03:10:15;;;;;;;50.70;19.15;;;13.30;99.90;;;;;;5185991;28;20057;-68
2022/05/16 03:12:46;;;;;;;50.45;19.05;;;13.30;99.90;;;;;;5186303;28;20033;-68
2022/05/16 03:15:18;;;;;;;54.42;20.52;;;13.50;99.90;;;;;;5186053;28;20058;-69
2022/05/16 03:17:49;;;;;;;54.80;19.90;;;13.40;99.90;;;;;;5186008;28;20018;-73
2022/05/16 03:20:20;;;;;;;58.60;20.35;;;13.50;99.90;;;;;;5185993;28;20030;-69
2022/05/16 03:22:50;;;;;;;64.90;19.48;;;13.50;99.90;;;;;;5185945;28;20033;-72
2022/05/16 03:25:21;;;;;;;54.63;18.35;;;13.40;99.90;;;;;;5186106;28;20528;-72
2022/05/16 03:27:52;;;;;;;59.42;20.08;;;13.50;99.90;;;;;;5185944;28;20144;-72
2022/05/16 03:30:23;;;;;;;57.40;20.23;;;13.50;99.90;;;;;;5185826;28;20038;-73
2022/05/16 03:32:54;;;;;;;57.30;20.60;;;13.50;99.90;;;;;;5184883;28;20052;-68
2022/05/16 03:35:25;;;;;;;62.88;21.08;;;13.60;99.90;;;;;;5186013;28;20049;-73
2022/05/16 03:37:56;;;;;;;59.60;20.33;;;13.50;99.90;;;;;;5188321;28;20026;-73
2022/05/16 03:40:42;;;;;;;66.50;21.52;;;13.60;99.90;;;;;;5189854;28;20370;-73
2022/05/16 03:43:14;;;;;;;59.53;20.08;;;13.50;99.90;;;;;;5189547;28;20484;-70
2022/05/16 03:45:45;;;;;;;58.20;21.77;;;13.50;99.90;;;;;;5189666;28;20054;-73
2022/05/16 03:48:16;;;;;;;54.97;19.85;;;13.50;99.90;;;;;;5189601;28;20463;-73
2022/05/16 03:50:47;;;;;;;60.03;21.58;;;13.60;99.90;;;;;;5189316;28;20028;-73
2022/05/16 03:53:17;;;;;;;52.95;18.70;;;13.50;99.90;;;;;;5189129;28;20494;-73
2022/05/16 03:55:48;;;;;;;56.00;19.17;;;13.70;99.90;;;;;;5188334;28;20038;-73
2022/05/16 03:58:19;;;;;;;48.33;19.55;;;13.60;99.90;;;;;;5189474;28;20060;-73
2022/05/16 04:00:50;;;;;;;54.78;20.05;;;13.60;99.90;;;;;;5189309;28;20030;-72
2022/05/16 04:03:21;;;;;;;57.85;21.17;;;13.60;99.90;;;;;;5189076;28;20018;-68
2022/05/16 04:05:52;;;;;;;56.05;20.55;;;13.70;99.90;;;;;;5188015;28;20129;-69
2022/05/16 04:08:22;;;;;;;48.53;19.00;;;13.60;99.90;;;;;;5187887;28;20109;-72
2022/05/16 04:10:53;;;;;;;64.78;21.92;;;13.70;99.90;;;;;;5189213;28;20084;-69
2022/05/16 04:13:24;;;;;;;58.90;20.20;;;13.50;99.90;;;;;;5189003;28;20096;-69
2022/05/16 04:15:55;;;;;;;57.00;20.42;;;13.80;99.90;;;;;;5189014;28;20022;-68
2022/05/16 04:18:26;;;;;;;73.05;22.20;;;13.70;99.90;;;;;;5188875;28;20033;-73
2022/05/16 04:20:57;;;;;;;58.35;21.23;;;13.50;99.90;;;;;;5188734;28;20552;-68
2022/05/16 04:23:28;;;;;;;60.85;22.70;;;13.60;99.90;;;;;;5188922;28;20104;-73
2022/05/16 04:25:59;;;;;;;54.05;20.95;;;13.80;99.90;;;;;;5188805;28;20025;-68
2022/05/16 04:28:30;;;;;;;53.13;21.17;;;13.80;99.90;;;;;;5188758;28;20465;-74
2022/05/16 04:31:01;;;;;;;43.88;18.88;;;13.90;99.90;;;;;;5188610;28;20112;-69
2022/05/16 04:33:34;;;;;;;50.53;21.33;;;14.00;99.90;;;;;;5188610;28;20125;-69
2022/05/16 04:36:05;;;;;;;55.92;22.15;;;14.20;99.90;;;;;;5188734;28;20485;-67
2022/05/16 04:38:36;;;;;;;57.97;20.02;;;14.30;99.90;;;;;;5188587;28;20041;-67
2022/05/16 04:43:57;;;;;;;51.05;22.08;;;14.20;99.90;;;;;;5188275;28;20037;-71
2022/05/16 04:46:28;;;;;;;53.40;20.75;;;14.20;99.90;;;;;;5186462;28;20414;-72
2022/05/16 04:48:59;;;;;;;47.60;19.98;;;14.30;99.90;;;;;;5187286;28;20053;-67
2022/05/16 04:51:29;;;;;;;42.30;19.40;;;14.20;99.90;;;;;;5187758;28;20613;-72
2022/05/16 04:54:00;;;;;;;38.92;19.10;;;14.20;99.90;;;;;;5188175;28;20045;-67
2022/05/16 04:56:32;;;;;;;37.22;17.52;;;14.40;99.90;;;;;;5188321;28;20462;-72
2022/05/16 04:59:03;;;;;;;35.38;18.60;;;14.40;99.90;;;;;;5188152;28;20030;-68
2022/05/16 05:01:34;;;;;;;40.80;19.30;;;14.60;99.90;;;;;;5188222;28;20030;-68
2022/05/16 05:04:05;;;;;;;38.40;19.30;;;14.50;99.90;;;;;;5188026;28;20030;-67
2022/05/16 05:06:35;;;;;;;36.58;18.67;;;15.00;99.90;;;;;;5188219;28;20470;-68
2022/05/16 05:09:06;;;;;;;39.63;19.45;;;15.10;99.90;;;;;;5187957;28;20084;-72
2022/05/16 05:14:32;;;;;;;34.38;18.27;;;15.20;99.90;;;;;;5187769;28;20041;-68
2022/05/16 05:17:07;;;;;;;40.83;19.42;;;15.10;99.90;;;;;;5186666;28;20168;-72
2022/05/16 05:19:42;;;;;;;35.22;19.15;;;15.40;99.90;;;;;;5187629;28;20044;-68
2022/05/16 05:22:13;;;;;;;33.72;18.08;;;15.50;99.90;;;;;;5187682;28;20054;-68
2022/05/16 05:24:43;;;;;;;35.05;21.75;;;15.40;99.90;;;;;;5187695;28;20429;-72
2022/05/16 05:27:14;;;;;;;40.10;22.23;;;15.50;99.90;;;;;;5187597;28;20111;-72
2022/05/16 05:29:47;;;;;;;35.03;21.33;;;15.50;99.90;;;;;;5187591;28;20037;-71
2022/05/16 05:32:18;;;;;;;35.17;21.38;;;15.70;99.90;;;;;;5187466;28;20065;-68
2022/05/16 05:34:49;;;;;;;34.97;21.40;;;16.00;99.90;;;;;;5187145;28;20054;-68
2022/05/16 05:37:20;;;;;;;32.92;20.48;;;16.50;99.90;;;;;;5185437;28;20485;-68
2022/05/16 05:39:52;;;;;;;27.83;19.15;;;16.80;99.90;;;;;;5186818;28;20026;-68
2022/05/16 05:42:23;;;;;;;22.42;16.63;;;16.70;99.90;;;;;;5187179;28;20121;-68
2022/05/16 05:44:54;;;;;;;22.83;15.65;;;16.50;99.90;;;;;;5187064;28;20458;-68
2022/05/16 05:47:26;;;;;;;25.05;15.45;;;16.80;99.90;;;;;;5187032;28;20034;-68
2022/05/16 05:49:59;;;;;;;19.48;14.70;;;17.20;99.90;;;;;;5186620;28;20172;-69
2022/05/16 05:52:30;;;;;;;22.40;15.63;;;17.90;99.90;;;;;;5186686;28;20482;-68
2022/05/16 05:55:01;;;;;;;21.90;16.17;;;17.50;99.90;;;;;;5186897;28;20191;-68
2022/05/16 05:57:32;;;;;;;25.92;16.30;;;17.50;99.90;;;;;;5186819;28;20034;-69
2022/05/16 06:00:06;;;;;;;24.35;17.02;;;18.00;99.90;;;;;;5186323;28;20029;-68
2022/05/16 06:02:40;;;;;;;26.80;19.70;;;18.20;99.90;;;;;;5186775;28;20108;-69
2022/05/16 06:05:15;;;;;;;28.77;20.27;;;18.50;99.90;;;;;;5186822;28;20021;-68
2022/05/16 06:07:46;;;;;;;35.83;24.30;;;19.00;99.90;;;;;;5186720;28;20025;-72
2022/05/16 06:10:17;;;;;;;48.92;30.15;;;18.80;99.90;;;;;;5186708;28;20022;-68
2022/05/16 06:12:48;;;;;;;59.85;37.47;;;18.90;99.90;;;;;;5186610;28;20037;-71
2022/05/16 06:15:19;;;;;;;64.30;39.53;;;19.10;99.90;;;;;;5186664;28;20060;-68
2022/05/16 06:17:50;;;;;;;60.75;37.63;;;19.20;99.90;;;;;;5185393;28;20021;-68
2022/05/16 06:20:21;;;;;;;36.95;23.67;;;19.30;99.90;;;;;;5176467;28;20032;-72
2022/05/16 06:22:54;;;;;;;15.65;11.35;;;19.60;99.90;;;;;;5176169;28;20030;-72
2022/05/16 06:25:32;;;;;;;14.88;10.65;;;19.60;99.90;;;;;;5186196;28;20058;-69
2022/05/16 06:28:11;;;;;;;13.82;10.20;;;19.80;99.90;;;;;;5186148;28;20389;-72
2022/05/16 06:30:45;;;;;;;10.40;8.30;;;20.10;99.90;;;;;;5185166;28;20029;-72
2022/05/16 06:33:18;;;;;;;13.15;8.65;;;19.80;99.90;;;;;;5186050;28;20378;-72
2022/05/16 06:35:50;;;;;;;11.10;7.88;;;20.20;99.90;;;;;;5186132;28;20167;-71
2022/05/16 06:38:23;;;;;;;8.23;6.30;;;20.40;99.90;;;;;;5186004;28;20026;-72
2022/05/16 06:40:55;;;;;;;12.32;6.90;;;20.50;99.90;;;;;;5186516;28;20544;-69
2022/05/16 06:43:28;;;;;;;11.00;6.90;;;20.70;99.90;;;;;;5186374;28;20339;-72
2022/05/16 06:45:59;;;;;;;11.15;7.03;;;20.80;99.90;;;;;;5186417;28;20026;-68
2022/05/16 06:48:30;;;;;;;11.90;6.43;;;20.70;99.90;;;;;;5186278;28;20105;-72
2022/05/16 06:51:01;;;;;;;8.18;6.10;;;21.00;99.90;;;;;;5186198;28;20025;-70
2022/05/16 06:53:32;;;;;;;7.32;5.60;;;21.10;99.90;;;;;;5186152;28;20077;-72
2022/05/16 06:56:04;;;;;;;9.90;7.45;;;21.30;99.90;;;;;;5186368;28;20037;-71
2022/05/16 06:58:35;;;;;;;10.20;6.82;;;21.50;99.90;;;;;;5186401;28;20458;-68
2022/05/16 07:01:06;;;;;;;8.55;6.47;;;21.80;99.90;;;;;;5186324;28;20034;-68
2022/05/16 07:03:40;;;;;;;7.68;5.82;;;21.50;99.90;;;;;;5186415;28;20013;-68
2022/05/16 07:06:14;;;;;;;10.90;5.68;;;21.50;99.90;;;;;;5186267;28;20053;-72
2022/05/16 07:08:45;;;;;;;8.85;5.30;;;21.80;99.90;;;;;;5186092;28;20041;-68
2022/05/16 07:11:16;;;;;;;7.95;5.53;;;21.90;99.90;;;;;;5186262;28;20500;-72
2022/05/16 07:13:46;;;;;;;8.32;4.70;;;22.00;99.90;;;;;;5189869;28;20026;-68
2022/05/16 07:16:17;;;;;;;5.30;4.80;;;22.00;99.90;;;;;;5190190;28;20470;-73
2022/05/16 07:18:48;;;;;;;6.25;4.68;;;22.00;99.90;;;;;;5190134;28;20021;-73
2022/05/16 07:21:19;;;;;;;14.23;5.38;;;22.30;99.90;;;;;;5190084;28;20069;-72
2022/05/16 07:23:50;;;;;;;5.78;4.50;;;22.40;99.90;;;;;;5190038;28;20068;-72
2022/05/16 07:29:10;;;;;;;6.10;3.90;;;22.40;99.90;;;;;;5190089;28;20018;-72
2022/05/16 07:31:41;;;;;;;7.10;3.53;;;22.70;99.90;;;;;;5188764;28;20030;-68
2022/05/16 07:34:12;;;;;;;8.38;3.97;;;22.60;99.90;;;;;;5189472;28;20370;-72
2022/05/16 07:36:44;;;;;;;4.25;3.50;;;22.90;99.90;;;;;;5189552;28;20025;-68
2022/05/16 07:39:15;;;;;;;4.15;3.60;;;22.80;99.90;;;;;;5189581;28;20014;-72
2022/05/16 07:41:46;;;;;;;6.50;3.85;;;22.90;99.90;;;;;;5188286;28;20080;-69
2022/05/16 07:44:16;;;;;;;9.82;3.83;;;23.00;99.90;;;;;;5189585;28;20021;-69
2022/05/16 07:46:47;;;;;;;6.50;3.42;;;23.00;99.90;;;;;;5188325;28;20145;-72
2022/05/16 07:49:19;;;;;;;5.90;3.42;;;22.80;99.90;;;;;;5188366;28;20036;-73
2022/05/16 07:51:50;;;;;;;4.13;3.15;;;23.10;99.90;;;;;;5189240;28;20037;-72
2022/05/16 07:54:22;;;;;;;6.75;3.10;;;23.10;99.90;;;;;;5189501;28;20092;-73
2022/05/16 07:56:52;;;;;;;4.97;3.38;;;23.30;99.90;;;;;;5188225;28;20543;-73
2022/05/16 07:59:23;;;;;;;6.15;3.30;;;23.20;99.90;;;;;;5189463;28;20038;-73
2022/05/16 08:01:54;;;;;;;3.88;3.33;;;23.70;99.90;;;;;;5189328;28;20421;-73
2022/05/16 08:04:25;;;;;;;5.50;3.00;;;23.40;99.90;;;;;;5189365;28;20035;-73
2022/05/16 08:06:56;;;;;;;5.20;2.83;;;23.90;99.90;;;;;;5188600;28;20073;-73
2022/05/16 08:12:27;;;;;;;5.93;3.08;;;23.90;99.90;;;;;;5189127;28;20729;-68
2022/05/16 09:44:20;;;;;;;7.93;2.67;;;25.90;99.90;;;;;;5308376;27;20454;-71
2022/05/16 09:47:12;;;;;;;5.15;2.60;;;26.60;99.90;;;;;;5303285;28;20028;-68
2022/05/16 09:49:43;;;;;;;3.78;2.50;;;26.70;99.90;;;;;;5286888;28;20030;-70
2022/05/16 09:52:21;;;;;;;8.32;2.45;;;27.00;99.90;;;;;;5287785;28;20032;-69
2022/05/16 09:55:00;;;;;;;5.88;2.70;;;26.60;99.90;;;;;;5295068;28;20454;-68
2022/05/16 09:58:07;;;;;;;4.45;2.63;;;26.80;99.90;;;;;;5295132;28;20026;-68
2022/05/16 10:00:43;;;;;;;6.20;2.90;;;26.40;99.90;;;;;;5282363;28;20481;-68
2022/05/16 10:03:28;;;;;;;7.20;3.13;;;26.20;99.90;;;;;;5295868;28;20054;-70
2022/05/16 10:06:03;;;;;;;6.72;3.33;;;26.70;99.90;;;;;;5307973;27;20016;-69
2022/05/16 10:08:37;;;;;;;5.45;3.15;;;26.70;99.90;;;;;;5285043;28;20356;-69
2022/05/16 10:11:29;;;;;;;6.60;3.20;;;26.90;99.90;;;;;;5284824;28;20074;-69
2022/05/16 10:14:00;;;;;;;4.90;3.55;;;26.80;99.90;;;;;;5280354;28;20547;-68
2022/05/16 10:16:32;;;;;;;6.38;3.60;;;26.70;99.90;;;;;;5285862;28;20483;-68
2022/05/16 10:19:07;;;;;;;4.93;3.40;;;26.80;99.90;;;;;;5286459;28;20059;-68
2022/05/16 10:21:51;;;;;;;6.57;3.67;;;26.60;99.90;;;;;;5286584;28;20497;-69
2022/05/16 10:24:25;;;;;;;4.60;3.08;;;26.80;99.90;;;;;;5286532;28;20032;-69
2022/05/16 10:27:06;;;;;;;4.78;2.97;;;26.70;99.90;;;;;;5286436;28;20023;-68
2022/05/16 10:29:46;;;;;;;6.40;3.03;;;26.80;99.90;;;;;;5286433;28;20038;-69
2022/05/16 10:35:38;;;;;;;5.93;2.45;;;26.60;99.90;;;;;;5286560;28;20027;-72
2022/05/16 10:38:22;;;;;;;6.95;3.10;;;26.50;99.90;;;;;;5286006;28;20020;-69
2022/05/16 10:40:58;;;;;;;6.28;3.70;;;26.80;99.90;;;;;;5286335;28;20020;-68
2022/05/16 10:43:43;;;;;;;7.60;3.95;;;26.60;99.90;;;;;;5279602;28;20097;-69
2022/05/16 10:46:18;;;;;;;6.63;3.42;;;26.70;99.90;;;;;;5272055;28;20024;-72
2022/05/16 10:49:16;;;;;;;6.22;3.20;;;26.30;99.90;;;;;;5271974;28;20483;-68
2022/05/16 10:52:00;;;;;;;5.57;2.72;;;26.70;99.90;;;;;;5272002;28;20043;-72
2022/05/16 10:54:31;;;;;;;3.70;2.60;;;26.80;99.90;;;;;;5271837;28;20352;-67
2022/05/16 10:57:08;;;;;;;8.15;3.08;;;26.60;99.90;;;;;;5271636;28;20110;-67
2022/05/16 11:00:19;;;;;;;7.70;2.63;;;26.90;99.90;;;;;;5271687;28;20689;-67
2022/05/16 11:03:39;;;;;;;3.70;2.40;;;26.80;99.90;;;;;;5271542;28;20031;-71
2022/05/16 11:06:49;;;;;;;5.85;2.45;;;26.80;99.90;;;;;;5201261;28;20032;-69
2022/05/16 11:09:36;;;;;;;9.20;2.40;;;26.70;99.90;;;;;;5250968;28;20039;-70
2022/05/16 11:12:17;;;;;;;6.10;2.40;;;26.40;99.90;;;;;;5250144;28;20041;-68
2022/05/16 11:15:00;;;;;;;4.90;2.42;;;26.10;99.90;;;;;;5250425;28;20375;-72
2022/05/16 11:17:42;;;;;;;5.90;2.20;;;26.40;99.90;;;;;;5252052;28;20516;-71
2022/05/16 11:20:43;;;;;;;6.22;2.65;;;26.30;99.90;;;;;;5265633;28;20363;-70
2022/05/16 11:23:35;;;;;;;4.22;2.25;;;26.00;99.90;;;;;;5236655;28;20031;-71
2022/05/16 11:26:31;;;;;;;8.60;2.50;;;26.60;99.90;;;;;;5242847;28;20078;-71
2022/05/16 11:29:18;;;;;;;6.60;2.75;;;26.60;99.90;;;;;;5250399;28;20035;-69
2022/05/16 11:31:58;;;;;;;3.97;2.50;;;26.10;99.90;;;;;;5250241;28;20037;-69
2022/05/16 11:34:37;;;;;;;5.95;2.20;;;26.40;99.90;;;;;;5250136;28;20086;-68
2022/05/16 11:37:18;;;;;;;;;;;25.50;99.90;;;;;;5269242;28;20099;-72
2022/05/16 11:40:05;;;;;;;3.58;2.00;;;26.40;99.90;;;;;;5250103;28;19908;-69
2022/05/16 11:42:58;;;;;;;8.88;2.33;;;25.90;99.90;;;;;;5249527;28;20029;-73
2022/05/16 11:45:29;;;;;;;4.78;2.25;;;26.00;99.90;;;;;;5247648;28;20036;-73
2022/05/16 11:48:33;;;;;;;4.60;2.25;;;26.10;99.90;;;;;;5257248;28;20157;-68
2022/05/16 11:51:30;;;;;;;7.22;1.80;;;26.20;99.90;;;;;;5232536;28;20348;-69
2022/05/16 11:54:03;;;;;;;4.57;1.90;;;26.30;99.90;;;;;;5266262;28;20043;-71
2022/05/16 12:02:33;;;;;;;3.28;2.10;;;25.80;99.90;;;;;;5268267;28;20028;-73
2022/05/16 12:05:08;;;;;;;5.00;2.00;;;25.40;99.90;;;;;;5268661;28;20020;-72
2022/05/16 12:07:45;;;;;;;4.10;1.90;;;25.60;99.90;;;;;;5264441;28;20027;-72
2022/05/16 12:10:16;;;;;;;7.38;1.85;;;26.00;99.90;;;;;;5263713;28;20024;-73
2022/05/16 12:13:07;;;;;;;4.50;2.20;;;26.20;99.90;;;;;;5268249;28;20043;-72
2022/05/16 12:15:38;;;;;;;9.57;2.80;;;26.90;99.90;;;;;;5264150;28;20027;-68
2022/05/16 12:18:46;;;;;;;6.05;2.13;;;25.60;99.90;;;;;;5268369;28;20119;-72
2022/05/16 12:21:22;;;;;;;8.20;2.63;;;26.00;99.90;;;;;;5221141;28;20447;-68
2022/05/16 12:23:54;;;;;;;3.63;1.77;;;26.00;99.90;;;;;;5268331;28;20047;-71
2022/05/16 12:26:27;;;;;;;3.40;1.70;;;25.70;99.90;;;;;;5268419;28;20024;-73
2022/05/16 12:29:11;;;;;;;4.75;2.05;;;25.70;99.90;;;;;;5268318;28;20485;-73
2022/05/16 12:31:45;;;;;;;8.88;2.72;;;25.50;99.90;;;;;;5264745;28;20043;-69
2022/05/16 12:34:40;;;;;;;5.45;2.50;;;25.40;99.90;;;;;;5262996;28;20016;-68
2022/05/16 12:37:17;;;;;;;6.53;2.00;;;25.30;99.90;;;;;;5267252;28;20434;-73
2022/05/16 12:40:25;;;;;;;8.50;2.10;;;25.70;99.90;;;;;;5268112;28;20048;-73
2022/05/16 12:43:27;;;;;;;3.35;2.28;;;25.30;99.90;;;;;;5264707;28;20502;-69
2022/05/16 12:46:27;;;;;;;3.05;1.80;;;25.70;99.90;;;;;;5216668;28;20425;-73
2022/05/16 12:49:16;;;;;;;;;;;25.80;99.90;;;;;;5263754;28;20095;-68
2022/05/16 12:51:59;;;;;;;4.03;2.28;;;25.70;99.90;;;;;;5265537;28;19955;-70
2022/05/16 12:54:37;;;;;;;5.97;2.20;;;25.90;99.90;;;;;;5267723;28;20047;-71
2022/05/16 12:57:45;;;;;;;4.95;2.30;;;25.50;99.90;;;;;;5267879;28;20404;-72
2022/05/16 13:00:21;;;;;;;4.68;1.95;;;26.00;99.90;;;;;;5262764;28;20036;-73
2022/05/16 13:03:18;;;;;;;4.10;1.85;;;25.50;99.90;;;;;;5267715;28;20012;-68
2022/05/16 13:06:04;;;;;;;10.15;2.30;;;25.30;99.90;;;;;;5266571;28;20337;-69
2022/05/16 13:08:47;;;;;;;3.15;2.03;;;25.60;99.90;;;;;;5269203;28;20115;-72
2022/05/16 13:11:49;;;;;;;6.50;2.47;;;25.40;99.90;;;;;;5269178;28;20036;-69
2022/05/16 13:14:38;;;;;;;4.05;1.98;;;25.00;99.90;;;;;;5269108;28;20396;-68
2022/05/16 13:17:15;;;;;;;5.10;2.50;;;25.70;99.90;;;;;;5269195;28;20035;-68
2022/05/16 13:19:52;;;;;;;5.57;2.40;;;25.30;99.90;;;;;;5269236;28;20042;-68
2022/05/16 13:22:23;;;;;;;4.70;1.98;;;25.70;99.90;;;;;;5269074;28;20020;-69
2022/05/16 13:24:56;;;;;;;3.78;2.10;;;26.10;99.90;;;;;;5268847;28;20463;-73
2022/05/16 13:30:23;;;;;;;3.85;2.03;;;25.50;99.90;;;;;;5269410;28;20032;-68
2022/05/16 13:32:54;;;;;;;3.33;2.03;;;25.20;99.90;;;;;;5268967;28;20063;-68
2022/05/16 13:35:35;;;;;;;5.22;2.28;;;25.20;99.90;;;;;;5268894;28;20027;-72
2022/05/16 13:38:08;;;;;;;5.18;1.73;;;25.60;99.90;;;;;;5268907;28;20048;-68
2022/05/16 13:40:44;;;;;;;5.78;1.83;;;25.70;99.90;;;;;;5268918;28;20124;-69
2022/05/16 13:43:27;;;;;;;2.70;1.58;;;25.90;99.90;;;;;;5268365;28;20052;-73
2022/05/16 13:46:04;;;;;;;5.57;2.00;;;24.80;99.90;;;;;;5268909;28;20020;-72
2022/05/16 13:48:36;;;;;;;4.78;1.60;;;24.60;99.90;;;;;;5268970;28;20515;-69
2022/05/16 13:51:07;;;;;;;5.50;1.52;;;25.00;99.90;;;;;;5268907;28;20092;-68
2022/05/16 13:53:39;;;;;;;2.75;1.70;;;25.00;99.90;;;;;;5268697;28;20036;-68
2022/05/16 13:56:09;;;;;;;2.50;1.60;;;25.40;99.90;;;;;;5268829;28;20464;-68
2022/05/16 13:58:40;;;;;;;3.40;1.63;;;25.40;99.90;;;;;;5268116;28;20039;-70
2022/05/16 14:01:16;;;;;;;1.80;1.25;;;25.60;99.90;;;;;;5266971;28;20024;-71
2022/05/16 14:04:02;;;;;;;2.95;1.73;;;25.70;99.90;;;;;;5266915;28;20023;-69
2022/05/16 14:06:50;;;;;;;4.43;1.25;;;24.80;99.90;;;;;;5266673;28;20047;-69
2022/05/16 14:09:36;;;;;;;2.58;1.58;;;25.00;99.90;;;;;;5262787;28;20564;-69
2022/05/16 14:12:12;;;;;;;3.80;1.40;;;25.10;99.90;;;;;;5264268;28;20032;-69
2022/05/16 14:14:43;;;;;;;3.13;1.60;;;24.60;99.90;;;;;;5266789;28;20103;-69
2022/05/16 14:17:35;;;;;;;5.57;1.40;;;25.20;99.90;;;;;;5266648;28;20019;-72
2022/05/16 14:20:18;;;;;;;4.18;1.65;;;25.50;99.90;;;;;;5267595;28;20032;-72
2022/05/16 14:22:56;;;;;;;4.18;1.50;;;25.70;99.90;;;;;;5270830;28;20543;-69
2022/05/16 14:25:38;;;;;;;3.83;1.27;;;25.80;99.90;;;;;;5270651;28;20435;-69
2022/05/16 14:28:33;;;;;;;2.30;1.50;;;25.00;99.90;;;;;;5270613;28;20526;-68
2022/05/16 14:31:24;;;;;;;4.07;1.60;;;25.60;99.90;;;;;;5267568;28;20024;-69
2022/05/16 14:34:18;;;;;;;8.35;1.55;;;25.50;99.90;;;;;;5270368;28;20028;-69
2022/05/16 14:36:51;;;;;;;4.20;1.70;;;25.20;99.90;;;;;;5268465;28;20016;-73
2022/05/16 14:39:26;;;;;;;3.35;1.95;;;24.50;99.90;;;;;;5270377;28;20028;-69
2022/05/16 14:42:09;;;;;;;2.50;1.70;;;25.10;99.90;;;;;;5264724;28;20071;-68
2022/05/16 14:44:53;;;;;;;5.40;1.80;;;24.40;99.90;;;;;;5268209;28;20387;-68
2022/05/16 14:47:39;;;;;;;3.78;1.55;;;24.70;99.90;;;;;;5272063;28;20432;-69
2022/05/16 14:50:17;;;;;;;3.13;1.45;;;25.20;99.90;;;;;;5272127;28;20173;-68
2022/05/16 14:53:22;;;;;;;2.83;1.40;;;24.90;99.90;;;;;;5271854;28;20115;-68
2022/05/16 14:55:54;;;;;;;2.22;1.30;;;25.30;99.90;;;;;;5254256;28;20040;-68
2022/05/16 14:58:25;;;;;;;4.50;1.52;;;24.80;99.90;;;;;;5271815;28;20046;-68
2022/05/16 15:04:04;;;;;;;4.03;1.38;;;24.90;99.90;;;;;;5271885;28;20520;-69
2022/05/16 15:06:41;;;;;;;2.80;1.53;;;24.20;99.90;;;;;;5271848;28;20024;-69
2022/05/16 15:09:16;;;;;;;2.45;1.27;;;24.50;99.90;;;;;;5271819;28;20024;-68
2022/05/16 15:11:54;;;;;;;6.30;1.15;;;23.70;99.90;;;;;;5271353;28;20115;-68
2022/05/16 15:14:28;;;;;;;2.22;1.20;;;23.90;99.90;;;;;;5271642;28;20036;-68
2022/05/16 15:16:59;;;;;;;3.15;1.40;;;23.70;99.90;;;;;;5271501;28;20020;-69
2022/05/16 15:19:30;;;;;;;5.47;1.30;;;23.70;99.90;;;;;;5271446;28;20521;-69
2022/05/16 15:22:03;;;;;;;3.20;1.13;;;23.60;99.90;;;;;;5271385;28;20028;-68
2022/05/16 15:24:38;;;;;;;3.28;1.63;;;23.40;99.90;;;;;;5271384;28;20020;-68